Weather at Missolonghi Aerodrome

Public forecast

Using degrees Celsius for public forecast. Weather courtesy of forecast.io.

Closest aviation weather report (METAR) to Missolonghi Aerodrome

Closest report is Patras Araxos Agamemnon Airport, 12.6 nm (23.4 km) SSW.

2024/07/20 20:50 (retrieved 31 minutes ago)

LGRX 202050Z 00000KT CAVOK 28/21 Q1007 BLU

Closest aviation forecast (TAF) to Missolonghi Aerodrome

Closest forecast is Aktion National Airport, 47.9 nm (88.7 km) NW.

2024/07/20 18:13 (retrieved 3 hours ago)

TAF LGPZ 201700Z 2018/2118 26012KT 9999 FEW020 BECMG 2021/2023 VRB03KT BECMG 2107/2109 27012KT